createdAt,value
2018-08-18T00:00:39.816Z,17.50
2018-08-18T00:03:07.167Z,17.40
2018-08-18T00:05:34.510Z,17.40
2018-08-18T00:08:01.861Z,17.30
2018-08-18T00:10:29.710Z,17.30
2018-08-18T00:12:57.012Z,17.30
2018-08-18T00:15:24.362Z,17.20
2018-08-18T00:17:51.712Z,17.20
2018-08-18T00:20:22.579Z,17.10
2018-08-18T00:22:49.935Z,17.10
2018-08-18T00:25:17.263Z,17.00
2018-08-18T00:27:44.646Z,17.00
2018-08-18T00:30:17.660Z,17.00
2018-08-18T00:32:45.073Z,16.90
2018-08-18T00:35:12.403Z,16.90
2018-08-18T00:37:39.716Z,16.80
2018-08-18T00:40:08.013Z,16.80
2018-08-18T00:45:11.195Z,16.70
2018-08-18T00:47:39.007Z,16.70
2018-08-18T00:50:07.194Z,16.60
2018-08-18T00:52:34.616Z,16.60
2018-08-18T00:55:02.072Z,16.60
2018-08-18T00:57:30.623Z,16.50
2018-08-18T01:00:04.872Z,16.50
2018-08-18T01:02:32.184Z,16.50
2018-08-18T01:05:00.755Z,16.40
2018-08-18T01:07:29.305Z,16.40
2018-08-18T01:09:56.993Z,16.40
2018-08-18T01:12:25.111Z,16.30
2018-08-18T01:14:52.551Z,16.30
2018-08-18T01:17:19.867Z,16.30
2018-08-18T01:19:47.202Z,16.30
2018-08-18T01:22:14.548Z,16.20
2018-08-18T01:24:41.877Z,16.20
2018-08-18T01:27:09.339Z,16.10
2018-08-18T01:29:36.527Z,16.10
2018-08-18T01:32:03.862Z,16.10
2018-08-18T01:34:31.184Z,16.00
2018-08-18T01:37:05.115Z,16.00
2018-08-18T01:39:33.495Z,16.00
2018-08-18T01:42:00.798Z,16.00
2018-08-18T01:44:28.146Z,15.90
2018-08-18T01:46:55.464Z,15.90
2018-08-18T01:49:27.340Z,15.90
2018-08-18T01:51:55.337Z,15.90
2018-08-18T01:54:22.632Z,15.80
2018-08-18T01:56:52.495Z,15.80
2018-08-18T01:59:19.912Z,15.80
2018-08-18T02:01:47.462Z,15.80
2018-08-18T02:04:16.524Z,15.80
2018-08-18T02:06:44.030Z,15.70
2018-08-18T02:09:11.323Z,15.70
2018-08-18T02:11:39.076Z,15.70
2018-08-18T02:14:07.812Z,15.70
2018-08-18T02:16:35.121Z,15.70
2018-08-18T02:19:02.468Z,15.70
2018-08-18T02:21:31.845Z,15.70
2018-08-18T02:24:02.365Z,15.60
2018-08-18T02:26:30.023Z,15.70
2018-08-18T02:28:57.330Z,15.60
2018-08-18T02:31:24.631Z,15.60
2018-08-18T02:33:52.182Z,15.60
2018-08-18T02:36:19.501Z,15.60
2018-08-18T02:38:52.483Z,15.50
2018-08-18T02:41:19.794Z,15.60
2018-08-18T02:43:47.149Z,15.60
2018-08-18T02:46:35.920Z,15.50
2018-08-18T02:49:03.956Z,15.50
2018-08-18T02:51:31.851Z,15.50
2018-08-18T02:53:59.491Z,15.50
2018-08-18T02:56:32.530Z,15.40
2018-08-18T02:59:04.843Z,15.50
2018-08-18T03:01:34.666Z,15.40
2018-08-18T03:04:03.658Z,15.40
2018-08-18T03:06:30.954Z,15.40
2018-08-18T03:08:58.577Z,15.40
2018-08-18T03:11:25.901Z,15.30
2018-08-18T03:13:53.217Z,15.30
2018-08-18T03:16:20.536Z,15.30
2018-08-18T03:18:49.937Z,15.30
2018-08-18T03:21:17.953Z,15.30
2018-08-18T03:23:57.242Z,15.30
2018-08-18T03:26:31.088Z,15.30
2018-08-18T03:28:58.423Z,15.30
2018-08-18T03:31:25.900Z,15.30
2018-08-18T03:33:53.312Z,15.30
2018-08-18T03:36:27.650Z,15.30
2018-08-18T03:38:55.618Z,15.30
2018-08-18T03:41:23.790Z,15.30
2018-08-18T03:43:51.933Z,15.40
2018-08-18T03:46:19.737Z,15.40
2018-08-18T03:48:47.354Z,15.40
2018-08-18T03:51:14.767Z,15.40
2018-08-18T03:53:42.088Z,15.50
2018-08-18T03:56:09.457Z,15.50
2018-08-18T03:58:52.197Z,15.50
2018-08-18T04:02:00.357Z,15.60
2018-08-18T04:04:28.845Z,15.60
2018-08-18T04:06:57.321Z,15.60
2018-08-18T04:09:29.844Z,15.50
2018-08-18T04:11:57.999Z,15.60
2018-08-18T04:14:31.156Z,15.60
2018-08-18T04:16:58.562Z,15.60
2018-08-18T04:19:25.874Z,15.60
2018-08-18T04:21:53.835Z,15.70
2018-08-18T04:24:22.255Z,15.70
2018-08-18T04:26:50.486Z,15.70
2018-08-18T04:29:19.611Z,15.70
2018-08-18T04:31:46.989Z,15.70
2018-08-18T04:34:14.345Z,15.70
2018-08-18T04:36:41.859Z,15.70
2018-08-18T04:39:10.627Z,15.70
2018-08-18T04:41:38.398Z,15.70
2018-08-18T04:44:06.163Z,15.80
2018-08-18T04:46:33.451Z,15.80
2018-08-18T04:49:01.174Z,15.90
2018-08-18T04:51:28.459Z,15.90
2018-08-18T04:53:55.811Z,16.00
2018-08-18T04:56:23.136Z,16.10
2018-08-18T04:58:50.465Z,16.10
2018-08-18T05:01:17.759Z,16.20
2018-08-18T05:03:57.934Z,16.30
2018-08-18T05:06:26.181Z,16.40
2018-08-18T05:08:54.385Z,16.40
2018-08-18T05:11:21.728Z,16.40
2018-08-18T05:13:49.675Z,16.50
2018-08-18T05:16:17.273Z,16.60
2018-08-18T05:18:44.814Z,16.60
2018-08-18T05:21:12.146Z,16.60
2018-08-18T05:23:39.460Z,16.70
2018-08-18T05:26:07.980Z,16.70
2018-08-18T05:28:35.334Z,16.70
2018-08-18T05:31:02.741Z,16.70
2018-08-18T05:33:30.074Z,16.70
2018-08-18T05:35:57.375Z,16.80
2018-08-18T05:38:24.686Z,16.80
2018-08-18T05:40:52.025Z,16.90
2018-08-18T05:43:19.389Z,16.90
2018-08-18T05:45:46.714Z,16.90
2018-08-18T05:48:14.046Z,17.00
2018-08-18T05:50:41.347Z,17.00
2018-08-18T05:53:19.947Z,17.10
2018-08-18T05:55:47.702Z,17.20
2018-08-18T05:58:15.033Z,17.30
2018-08-18T06:00:42.390Z,17.50
2018-08-18T06:03:09.753Z,17.80
2018-08-18T06:05:37.098Z,18.00
2018-08-18T06:08:04.926Z,18.30
2018-08-18T06:10:32.244Z,18.60
2018-08-18T06:13:05.063Z,18.90
2018-08-18T06:15:40.474Z,19.20
2018-08-18T06:18:07.866Z,19.50
2018-08-18T06:20:35.202Z,19.80
2018-08-18T06:23:02.538Z,20.10
2018-08-18T06:25:29.857Z,20.40
2018-08-18T06:27:57.170Z,20.70
2018-08-18T06:30:24.495Z,20.90
2018-08-18T06:32:51.811Z,21.20
2018-08-18T06:35:19.139Z,21.40
2018-08-18T06:37:52.240Z,21.60
2018-08-18T06:40:19.588Z,21.80
2018-08-18T06:42:46.963Z,22.00
2018-08-18T06:45:19.640Z,22.20
2018-08-18T06:47:46.992Z,22.30
2018-08-18T06:50:15.520Z,22.40
2018-08-18T06:52:43.620Z,22.60
2018-08-18T06:55:15.181Z,22.70
2018-08-18T06:57:49.769Z,22.90
2018-08-18T07:00:19.211Z,23.10
2018-08-18T07:02:46.689Z,23.20
2018-08-18T07:07:43.588Z,23.40
2018-08-18T07:10:42.042Z,23.40
2018-08-18T07:13:10.194Z,23.50
2018-08-18T07:15:38.739Z,23.50
2018-08-18T07:18:08.312Z,23.40
2018-08-18T07:20:35.895Z,23.40
2018-08-18T07:23:03.245Z,23.30
2018-08-18T07:25:30.643Z,23.30
2018-08-18T07:28:03.738Z,23.20
2018-08-18T07:30:31.563Z,23.10
2018-08-18T07:32:59.327Z,23.00
2018-08-18T07:35:26.871Z,22.90
2018-08-18T07:37:54.843Z,22.90
2018-08-18T07:40:28.619Z,22.90
2018-08-18T07:43:00.515Z,22.80
2018-08-18T07:45:27.881Z,22.80
2018-08-18T07:47:55.252Z,22.80
2018-08-18T07:50:22.612Z,22.90
2018-08-18T07:52:50.046Z,22.90
2018-08-18T07:55:17.371Z,22.90
2018-08-18T07:57:49.410Z,23.00
2018-08-18T08:00:16.828Z,23.00
2018-08-18T08:02:44.177Z,23.10
2018-08-18T08:05:11.611Z,23.10
2018-08-18T08:07:38.955Z,23.10
2018-08-18T08:10:06.347Z,23.20
2018-08-18T08:12:33.697Z,23.20
2018-08-18T08:15:00.942Z,23.20
2018-08-18T08:17:28.252Z,23.30
2018-08-18T08:19:55.667Z,23.30
2018-08-18T08:22:22.948Z,23.40
2018-08-18T08:24:50.716Z,23.50
2018-08-18T08:27:18.017Z,23.50
2018-08-18T08:29:45.601Z,23.60
2018-08-18T08:32:12.947Z,23.70
2018-08-18T08:34:45.079Z,23.80
2018-08-18T08:37:13.472Z,23.80
2018-08-18T08:39:41.127Z,23.80
2018-08-18T08:42:08.536Z,23.90
2018-08-18T08:44:35.867Z,23.90
2018-08-18T08:47:08.476Z,24.00
2018-08-18T08:49:36.104Z,24.00
2018-08-18T08:52:03.682Z,24.10
2018-08-18T08:54:32.939Z,24.10
2018-08-18T08:57:03.628Z,24.20
2018-08-18T08:59:31.965Z,24.30
2018-08-18T09:01:59.528Z,24.40
2018-08-18T09:04:26.973Z,24.40
2018-08-18T09:06:54.824Z,24.50
2018-08-18T09:09:22.409Z,24.50
2018-08-18T09:11:49.802Z,24.60
2018-08-18T09:14:17.116Z,24.70
2018-08-18T09:16:44.500Z,24.70
2018-08-18T09:19:11.941Z,24.80
2018-08-18T09:21:45.057Z,24.80
2018-08-18T09:24:12.662Z,24.90
2018-08-18T09:29:20.319Z,25.10
2018-08-18T09:31:47.835Z,25.10
2018-08-18T09:34:15.498Z,25.20
2018-08-18T09:36:43.556Z,25.30
2018-08-18T09:39:20.490Z,25.30
2018-08-18T09:41:47.890Z,25.40
2018-08-18T09:44:20.941Z,25.50
2018-08-18T09:46:49.067Z,25.50
2018-08-18T09:49:16.428Z,25.60
2018-08-18T09:51:43.883Z,25.70
2018-08-18T09:54:11.216Z,25.70
2018-08-18T09:56:38.625Z,25.80
2018-08-18T09:59:06.032Z,25.80
2018-08-18T10:01:33.366Z,25.90
2018-08-18T10:04:00.734Z,26.00
2018-08-18T10:06:28.267Z,26.10
2018-08-18T10:08:55.666Z,26.20
2018-08-18T10:11:29.976Z,26.30
2018-08-18T10:13:57.321Z,26.40
2018-08-18T10:16:24.634Z,26.50
2018-08-18T10:18:52.014Z,26.50
2018-08-18T10:21:19.320Z,26.60
2018-08-18T10:23:47.676Z,26.70
2018-08-18T10:26:15.015Z,26.70
2018-08-18T10:28:42.348Z,26.70
2018-08-18T10:31:09.674Z,26.70
2018-08-18T10:33:37.115Z,26.70
2018-08-18T10:36:04.403Z,26.70
2018-08-18T10:38:31.732Z,26.60
2018-08-18T10:41:01.390Z,26.70
2018-08-18T10:43:28.996Z,26.70
2018-08-18T10:45:56.303Z,26.80
2018-08-18T10:48:23.983Z,26.80
2018-08-18T10:51:33.259Z,26.90
2018-08-18T10:54:01.113Z,27.00
2018-08-18T10:59:15.659Z,27.20
2018-08-18T11:02:25.765Z,27.30
2018-08-18T11:04:53.056Z,27.40
2018-08-18T11:07:20.630Z,27.50
2018-08-18T11:09:48.236Z,27.50
2018-08-18T11:12:15.552Z,27.50
2018-08-18T11:14:47.575Z,27.50
2018-08-18T11:17:14.972Z,27.50
2018-08-18T11:19:42.286Z,27.60
2018-08-18T11:22:49.904Z,27.60
2018-08-18T11:25:18.079Z,27.60
2018-08-18T11:27:45.567Z,27.70
2018-08-18T11:30:13.127Z,27.70
2018-08-18T11:32:40.437Z,27.80
2018-08-18T11:35:08.463Z,27.80
2018-08-18T11:37:51.085Z,27.80
2018-08-18T11:40:19.020Z,27.80
2018-08-18T11:42:46.343Z,27.80
2018-08-18T11:45:13.834Z,27.90
2018-08-18T11:47:45.895Z,27.80
2018-08-18T11:50:13.251Z,27.80
2018-08-18T11:52:45.439Z,27.80
2018-08-18T11:55:12.780Z,27.70
2018-08-18T11:57:40.307Z,27.70
2018-08-18T12:00:07.684Z,27.80
2018-08-18T12:02:35.038Z,27.90
2018-08-18T12:05:02.584Z,28.00
2018-08-18T12:07:29.956Z,28.00
2018-08-18T12:09:57.285Z,28.10
2018-08-18T12:12:24.645Z,28.10
2018-08-18T12:14:52.016Z,28.20
2018-08-18T12:17:19.344Z,28.30
2018-08-18T12:19:49.137Z,28.40
2018-08-18T12:22:16.487Z,28.50
2018-08-18T12:24:48.452Z,28.60
2018-08-18T12:27:15.879Z,28.70
2018-08-18T12:29:43.424Z,28.70
2018-08-18T12:32:16.421Z,28.70
2018-08-18T12:34:43.750Z,28.70
2018-08-18T12:37:13.093Z,28.70
2018-08-18T12:39:40.827Z,28.70
2018-08-18T12:42:08.268Z,28.60
2018-08-18T12:44:35.589Z,28.60
2018-08-18T12:47:03.132Z,28.60
2018-08-18T12:49:31.185Z,28.60
2018-08-18T12:51:58.571Z,28.60
2018-08-18T12:54:25.920Z,28.60
2018-08-18T12:56:53.269Z,28.60
2018-08-18T12:59:20.608Z,28.60
2018-08-18T13:01:49.223Z,28.60
2018-08-18T13:04:18.290Z,28.70
2018-08-18T13:06:47.800Z,28.70
2018-08-18T13:09:16.799Z,28.80
2018-08-18T13:11:45.550Z,28.80
2018-08-18T13:14:17.138Z,28.70
2018-08-18T13:16:44.564Z,28.70
2018-08-18T13:19:13.840Z,28.60
2018-08-18T13:21:41.345Z,28.60
2018-08-18T13:24:08.723Z,28.60
2018-08-18T13:26:36.057Z,28.50
2018-08-18T13:29:03.433Z,28.50
2018-08-18T13:31:35.374Z,28.40
2018-08-18T13:34:02.778Z,28.40
2018-08-18T13:36:30.170Z,28.50
2018-08-18T13:38:57.512Z,28.70
2018-08-18T13:41:24.848Z,28.60
2018-08-18T13:43:52.166Z,28.60
2018-08-18T13:46:29.719Z,28.70
2018-08-18T13:49:02.089Z,28.70
2018-08-18T13:51:29.808Z,28.80
2018-08-18T13:53:57.265Z,28.80
2018-08-18T13:56:25.974Z,28.80
2018-08-18T13:58:54.258Z,28.70
2018-08-18T14:01:36.952Z,28.70
2018-08-18T14:04:04.508Z,28.60
2018-08-18T14:06:37.404Z,28.60
2018-08-18T14:09:05.824Z,28.50
2018-08-18T14:11:33.136Z,28.50
2018-08-18T14:14:00.899Z,28.40
2018-08-18T14:16:28.969Z,28.40
2018-08-18T14:18:56.460Z,28.30
2018-08-18T14:21:23.837Z,28.30
2018-08-18T14:23:51.238Z,28.30
2018-08-18T14:26:18.665Z,28.30
2018-08-18T14:28:46.042Z,28.30
2018-08-18T14:31:13.435Z,28.30
2018-08-18T14:33:40.832Z,28.40
2018-08-18T14:36:11.080Z,28.40
2018-08-18T14:38:38.851Z,28.40
2018-08-18T14:41:06.291Z,28.40
2018-08-18T14:43:38.608Z,28.40
2018-08-18T14:46:07.677Z,28.40
2018-08-18T14:48:35.158Z,28.40
2018-08-18T14:51:02.533Z,28.40
2018-08-18T14:53:29.859Z,28.40
2018-08-18T14:55:57.302Z,28.50
2018-08-18T14:58:30.570Z,28.50
2018-08-18T15:01:02.525Z,28.60
2018-08-18T15:03:29.881Z,28.60
2018-08-18T15:05:57.852Z,28.80
2018-08-18T15:08:25.359Z,28.60
2018-08-18T15:10:52.749Z,28.60
2018-08-18T15:13:20.084Z,28.70
2018-08-18T15:15:47.533Z,28.70
2018-08-18T15:18:15.960Z,28.60
2018-08-18T15:20:43.734Z,28.60
2018-08-18T15:23:12.021Z,28.60
2018-08-18T15:25:40.180Z,28.50
2018-08-18T15:28:08.664Z,28.40
2018-08-18T15:30:37.243Z,28.40
2018-08-18T15:33:05.522Z,28.30
2018-08-18T15:35:35.647Z,28.30
2018-08-18T15:38:03.996Z,28.20
2018-08-18T15:40:31.383Z,28.20
2018-08-18T15:42:59.750Z,28.20
2018-08-18T15:45:27.512Z,28.10
2018-08-18T15:47:54.907Z,28.10
2018-08-18T15:50:22.830Z,28.00
2018-08-18T15:52:50.212Z,28.10
2018-08-18T15:55:17.537Z,28.00
2018-08-18T15:57:44.892Z,28.00
2018-08-18T16:00:27.432Z,28.00
2018-08-18T16:02:55.581Z,28.00
2018-08-18T16:05:22.944Z,28.00
2018-08-18T16:07:50.609Z,27.90
2018-08-18T16:10:17.974Z,27.90
2018-08-18T16:12:45.706Z,27.80
2018-08-18T16:15:13.048Z,27.70
2018-08-18T16:17:40.415Z,27.60
2018-08-18T16:20:12.344Z,27.60
2018-08-18T16:22:39.692Z,27.60
2018-08-18T16:25:12.325Z,27.50
2018-08-18T16:27:39.676Z,27.50
2018-08-18T16:30:07.053Z,27.50
2018-08-18T16:32:34.355Z,27.50
2018-08-18T16:35:07.360Z,27.50
2018-08-18T16:37:37.649Z,27.50
2018-08-18T16:40:05.013Z,27.40
2018-08-18T16:42:32.375Z,27.30
2018-08-18T16:45:00.074Z,27.40
2018-08-18T16:47:27.469Z,27.30
2018-08-18T16:49:54.819Z,27.30
2018-08-18T16:52:22.289Z,27.30
2018-08-18T16:54:49.644Z,27.30
2018-08-18T16:57:17.035Z,27.20
2018-08-18T16:59:44.373Z,27.20
2018-08-18T17:02:27.851Z,27.10
2018-08-18T17:04:55.179Z,27.00
2018-08-18T17:07:26.772Z,27.00
2018-08-18T17:09:54.347Z,26.90
2018-08-18T17:12:23.504Z,26.80
2018-08-18T17:14:50.873Z,26.70
2018-08-18T17:17:18.277Z,26.70
2018-08-18T17:19:45.867Z,26.60
2018-08-18T17:22:14.064Z,26.50
2018-08-18T17:24:41.403Z,26.50
2018-08-18T17:27:08.798Z,26.40
2018-08-18T17:29:39.338Z,26.40
2018-08-18T17:32:07.556Z,26.40
2018-08-18T17:34:34.974Z,26.30
2018-08-18T17:37:02.564Z,26.30
2018-08-18T17:39:29.905Z,26.20
2018-08-18T17:41:57.675Z,26.20
2018-08-18T17:44:25.026Z,26.10
2018-08-18T17:46:56.346Z,26.10
2018-08-18T17:49:25.132Z,26.10
2018-08-18T17:52:05.436Z,26.00
2018-08-18T17:54:33.702Z,26.00
2018-08-18T17:57:01.375Z,26.00
2018-08-18T17:59:29.019Z,25.90
2018-08-18T18:02:00.515Z,25.90
2018-08-18T18:04:28.958Z,25.90
2018-08-18T18:06:57.632Z,25.80
2018-08-18T18:09:27.271Z,25.80
2018-08-18T18:11:54.683Z,25.80
2018-08-18T18:14:21.998Z,25.70
2018-08-18T18:16:49.321Z,25.70
2018-08-18T18:19:16.640Z,25.70
2018-08-18T18:21:44.346Z,25.60
2018-08-18T18:24:11.647Z,25.50
2018-08-18T18:26:39.920Z,25.50
2018-08-18T18:29:08.149Z,25.50
2018-08-18T18:31:35.474Z,25.40
2018-08-18T18:34:03.646Z,25.40
2018-08-18T18:36:32.369Z,25.30
2018-08-18T18:38:59.780Z,25.30
2018-08-18T18:41:27.100Z,25.30
2018-08-18T18:44:26.895Z,25.30
2018-08-18T18:46:54.215Z,25.20
2018-08-18T18:49:29.416Z,25.20
2018-08-18T18:51:56.933Z,25.10
2018-08-18T18:54:24.337Z,25.10
2018-08-18T18:56:51.839Z,25.00
2018-08-18T18:59:19.211Z,25.00
2018-08-18T19:01:46.564Z,25.00
2018-08-18T19:04:17.249Z,24.90
2018-08-18T19:07:01.444Z,24.90
2018-08-18T19:09:28.811Z,24.90
2018-08-18T19:11:56.131Z,24.80
2018-08-18T19:14:23.431Z,24.80
2018-08-18T19:16:51.772Z,24.70
2018-08-18T19:19:20.032Z,24.70
2018-08-18T19:21:47.325Z,24.70
2018-08-18T19:24:20.424Z,24.70
2018-08-18T19:26:50.092Z,24.70
2018-08-18T19:29:18.154Z,24.70
2018-08-18T19:31:47.131Z,24.60
2018-08-18T19:34:14.735Z,24.60
2018-08-18T19:36:54.378Z,24.60
2018-08-18T19:39:23.441Z,24.60
2018-08-18T19:41:50.831Z,24.50
2018-08-18T19:44:18.146Z,24.40
2018-08-18T19:46:45.644Z,24.40
2018-08-18T19:49:18.797Z,24.30
2018-08-18T19:51:46.132Z,24.30
2018-08-18T19:54:13.444Z,24.20
2018-08-18T19:56:40.767Z,24.10
2018-08-18T19:59:08.053Z,24.10
2018-08-18T20:01:35.439Z,24.00
2018-08-18T20:04:10.663Z,24.00
2018-08-18T20:06:38.007Z,23.90
2018-08-18T20:09:06.462Z,23.90
2018-08-18T20:11:33.942Z,23.80
2018-08-18T20:14:01.270Z,23.80
2018-08-18T20:16:28.755Z,23.70
2018-08-18T20:18:56.053Z,23.70
2018-08-18T20:21:23.351Z,23.70
2018-08-18T20:23:50.814Z,23.60
2018-08-18T20:26:18.165Z,23.60
2018-08-18T20:28:45.457Z,23.50
2018-08-18T20:31:12.915Z,23.50
2018-08-18T20:33:40.219Z,23.50
2018-08-18T20:36:07.507Z,23.40
2018-08-18T20:38:41.313Z,23.40
2018-08-18T20:41:08.662Z,23.40
2018-08-18T20:43:36.039Z,23.40
2018-08-18T20:46:03.414Z,23.30
2018-08-18T20:48:30.757Z,23.30
2018-08-18T20:50:58.054Z,23.30
2018-08-18T20:53:26.707Z,23.20
2018-08-18T20:55:58.288Z,23.20
2018-08-18T20:58:26.247Z,23.20
2018-08-18T21:00:53.626Z,23.10
2018-08-18T21:03:21.679Z,23.10
2018-08-18T21:05:49.029Z,23.10
2018-08-18T21:08:18.728Z,23.10
2018-08-18T21:10:46.386Z,23.00
2018-08-18T21:13:13.675Z,23.00
2018-08-18T21:15:40.995Z,23.00
2018-08-18T21:18:14.088Z,23.00
2018-08-18T21:20:41.423Z,23.00
2018-08-18T21:23:08.896Z,23.00
2018-08-18T21:25:44.645Z,23.00
2018-08-18T21:28:12.924Z,23.00
2018-08-18T21:30:40.633Z,23.00
2018-08-18T21:33:07.947Z,23.00
2018-08-18T21:35:36.871Z,23.00
2018-08-18T21:38:04.410Z,23.00
2018-08-18T21:40:31.710Z,23.00
2018-08-18T21:42:59.215Z,23.00
2018-08-18T21:45:31.087Z,23.00
2018-08-18T21:47:58.375Z,23.00
2018-08-18T21:50:25.703Z,23.00
2018-08-18T21:52:53.014Z,23.00
2018-08-18T21:55:20.335Z,23.00
2018-08-18T21:57:55.980Z,23.00
2018-08-18T22:00:27.985Z,23.00
2018-08-18T22:02:57.115Z,23.00
2018-08-18T22:05:24.459Z,23.00
2018-08-18T22:07:52.331Z,23.00
2018-08-18T22:10:20.371Z,23.00
2018-08-18T22:12:47.793Z,22.90
2018-08-18T22:15:16.831Z,22.90
2018-08-18T22:17:44.658Z,22.90
2018-08-18T22:20:12.374Z,22.80
2018-08-18T22:22:39.864Z,22.80
2018-08-18T22:25:07.265Z,22.70
2018-08-18T22:27:35.643Z,22.70
2018-08-18T22:30:09.279Z,22.60
2018-08-18T22:32:38.074Z,22.50
2018-08-18T22:35:05.473Z,22.40
2018-08-18T22:37:32.823Z,22.40
2018-08-18T22:40:00.198Z,22.30
2018-08-18T22:42:27.503Z,22.20
2018-08-18T22:44:55.010Z,22.10
2018-08-18T22:47:22.325Z,22.00
2018-08-18T22:49:51.324Z,22.00
2018-08-18T22:52:18.613Z,21.90
2018-08-18T22:54:45.923Z,21.80
2018-08-18T22:57:13.432Z,21.70
2018-08-18T22:59:41.223Z,21.70
2018-08-18T23:02:08.639Z,21.60
2018-08-18T23:04:37.271Z,21.60
2018-08-18T23:07:05.655Z,21.50
2018-08-18T23:09:33.064Z,21.40
2018-08-18T23:12:04.039Z,21.30
2018-08-18T23:14:36.462Z,21.30
2018-08-18T23:17:04.162Z,21.20
2018-08-18T23:19:32.320Z,21.20
2018-08-18T23:22:01.528Z,21.10
2018-08-18T23:24:37.246Z,21.10
2018-08-18T23:27:04.784Z,21.00
2018-08-18T23:29:32.083Z,21.00
2018-08-18T23:32:03.370Z,20.90
2018-08-18T23:34:30.664Z,20.90
2018-08-18T23:36:58.165Z,20.70
2018-08-18T23:39:25.522Z,20.80
2018-08-18T23:42:04.886Z,20.70
2018-08-18T23:44:32.185Z,20.70
2018-08-18T23:46:59.470Z,20.60
2018-08-18T23:49:26.795Z,20.60
2018-08-18T23:51:55.062Z,20.60
2018-08-18T23:54:23.877Z,20.50
2018-08-18T23:56:51.746Z,20.50
2018-08-18T23:59:21.028Z,20.40
